Tiempo atmosférico en la estación meteorológica de Barbate, Cádiz (4 m.)



Fecha
DESCASC
Temp. máxima en grados centígrados (hora)
DESCASC
Temp. mínima en grados centígrados (hora)
DESCASC
Temp. media en grados centígrados
DESCASC
Racha de viento máxima en m/sg (hora)
DESCASC
Velocidad máxima media en intervalos de 10 minutos(hora)
DESCASC
Precipitaciones diarias en mm
DESCASC
Precipitaciones de 00:00 a 06:00 en mm
DESCASC
Precipitaciones de 06:00 a 12:00 en mm
DESCASC
Precipitaciones de 12:00 a 18:00 en mm
DESCASC
Precipitaciones de 18:00 a 24:00 en mm
DESCASC
21-02-2021 16.5 (03:50) 11.7 (12:20) 14.1 21.11 (08:50) 15 (08:50) 0 0 0 0 0
20-02-2021 21.2 (14:30) 9.7 (01:50) 15.5 14.72 (22:00) 9.72 (22:00) 0 0 0 0 0
19-02-2021 19.1 (14:50) 6.3 (07:10) 12.7 6.39 (17:20) 5.28 (17:20) 0 0 0 0 0
18-02-2021 17.4 (16:20) 7.3 (00:00) 12.3 5.28 (12:10) 3.61 (12:20) 0 0 0 0 0
17-02-2021 19.3 (15:20) 8.6 (00:00) 13.9 5.83 (14:10) 4.44 (16:20) 0 0 0 0 0
16-02-2021 20.6 (15:50) 11.2 (00:00) 15.9 18.33 (02:40) 9.44 (02:50) 0 0 0 0 0
15-02-2021 18.1 (14:30) 14 (00:00) 16.1 23.61 (20:30) 12.5 (03:10) -- -- 0 0 0
14-02-2021 20.3 (14:50) 7.3 (00:00) 13.8 17.5 (17:20) 10.56 (16:40) -- -- -- -- --
13-02-2021 19.8 (18:00) 8.1 (00:00) 13.9 6.39 (09:30) 4.17 (08:50) -- -- -- -- --
12-02-2021 19.9 (16:30) 11.4 (00:00) 15.6 7.78 (17:30) 5.28 (17:30) -- -- -- -- --
11-02-2021 17.5 (12:00) 13.4 (00:00) 15.4 6.94 (17:50) 5.28 (14:10) 0 0 0 0 0
10-02-2021 16.6 (13:20) 14.4 (00:00) 15.5 19.44 (01:40) 11.67 (01:40) 0 0 0 0 0
09-02-2021 16.9 (14:40) 13.9 (00:00) 15.4 16.67 (18:30) 12.78 (22:30) 0 0 0 0 0
08-02-2021 16.7 (16:30) 13.3 (00:00) 15 21.39 (06:40) 15.83 (07:30) 9.2 0 9.2 0 0
07-02-2021 14.4 (14:20) 10.9 (00:00) 12.6 15.83 (23:20) 11.39 (23:20) 0 0 0 0 0
06-02-2021 15.5 (14:40) 11.1 (00:00) 13.3 12.78 (10:30) 9.17 (12:50) 0 0 0 0 0
05-02-2021 15.9 (12:20) 12.4 (00:00) 14.1 20.28 (21:20) 15 (21:20) 0 0 0 0 0
04-02-2021 18.4 (15:10) 11.1 (00:00) 14.8 10.28 (22:20) 6.94 (11:10) 0 0 0 0 0
03-02-2021 17.5 (14:40) 10.8 (00:00) 14.2 7.78 (22:00) 5.83 (22:00) 0 0 0 0 0
02-02-2021 17.8 (17:00) 11 (00:00) 14.4 7.22 (16:10) 5.56 (16:10) 0 0 0 0 0
01-02-2021 18.6 (15:40) 13.7 (00:00) 16.2 11.11 (14:00) 7.22 (01:50) 0 0 0 0 0
31-01-2021 17 (14:40) 12.7 (00:00) 14.8 10.83 (14:40) 8.33 (14:40) 0 0 0 0 0
30-01-2021 17.3 (16:00) 13.6 (00:00) 15.4 12.22 (12:30) 10 (13:10) 0 0 0 0 0
29-01-2021 16.4 (14:10) 13.3 (00:00) 14.8 6.67 (19:10) 4.44 (16:30) 0.2 0.2 0 0 0
28-01-2021 18.2 (17:30) 12.6 (00:00) 15.4 5.83 (15:10) 4.72 (14:30) 0 0 0 0 0
27-01-2021 20.8 (17:30) 14 (00:00) 17.4 6.11 (16:50) 3.89 (18:30) 0.2 0.2 0 0 0
26-01-2021 17.3 (13:50) 15.2 (00:00) 16.2 7.22 (00:10) 5.83 (17:40) 0.2 0 0 0.2 0
25-01-2021 16.8 (11:50) 11.3 (00:00) 14 13.61 (16:30) 10 (16:30) 1.6 0 0.6 1 0

Gráficas

Temp. máximas Temp. mínimas Temp. medias Precipitaciones Rachas de viento máximas Velocidades máximas media en intervalos de 10 minutos

Datos horarios

Fecha y hora oficial Temperatura (ºC) Velocidad del viento (km/h) Dirección del viento Racha (km/h) Dirección de racha Precipitación (mm) Presión (hPa) Tendencia (hPa) Humedad (%)
2021-02-23 23:00:00 13.3 16 Este 28 Este 0 -- -- 80
2021-02-23 22:00:00 12.5 14 Nordeste 23 Este 0 -- -- 82
2021-02-23 21:00:00 13 17 Este 28 Este 0 -- -- 77
2021-02-23 20:00:00 13.5 8 Nordeste 37 Este 0 -- -- 75
2021-02-23 19:00:00 15.1 25 Este 46 Sudeste 0 -- -- 68
2021-02-23 18:00:00 16.8 23 Este 45 Este 0 -- -- 64
2021-02-23 17:00:00 17.4 26 Este 46 Este 0 -- -- 60
2021-02-23 16:00:00 18.2 29 Este 45 Este 0 -- -- 56
2021-02-23 15:00:00 18.6 23 Este 45 Este 0 -- -- 50
2021-02-23 14:00:00 18.4 24 Este 41 Este 0 -- -- 47
2021-02-23 13:00:00 18 22 Este 39 Sudeste 0 -- -- 46
2021-02-23 12:00:00 17.1 12 Este 22 Este 0 -- -- 48
2021-02-23 11:00:00 13.4 6 Norte 12 Norte 0 -- -- 83
2021-02-23 10:00:00 10.2 6 Norte 15 Nordeste 0 -- -- 91
2021-02-23 09:00:00 7.6 8 Norte 15 Norte 0 -- -- 99
2021-02-23 08:00:00 6.7 9 Norte 16 Norte 0 -- -- 100
2021-02-23 07:00:00 7 8 Norte 16 Norte 0 -- -- 100
2021-02-23 06:00:00 7.3 8 Norte 15 Norte 0 -- -- 100
2021-02-23 05:00:00 7.6 10 Norte 14 Norte 0 -- -- 100
2021-02-23 04:00:00 8.3 7 Norte 11 Norte 0 -- -- 99
2021-02-23 03:00:00 8.4 8 Norte 14 Norte 0 -- -- 99
2021-02-23 02:00:00 8.8 7 Norte 14 Norte 0 -- -- 99
2021-02-23 01:00:00 8.8 6 Norte 15 Nordeste 0 -- -- 98
2021-02-23 00:00:00 9.2 8 Norte 12 Norte 0 -- -- 97
2021-02-22 23:00:00 10 6 Norte 8 Norte 0 -- -- 94
2021-02-22 22:00:00 10.5 6 Nordeste 10 Nordeste 0 -- -- 94
2021-02-22 21:00:00 13 4 Noroeste 12 Oeste 0 -- -- 83
2021-02-22 20:00:00 13.9 6 Oeste 19 Oeste 0 -- -- 80
2021-02-22 19:00:00 14.7 14 Oeste 19 Oeste 0 -- -- 74
2021-02-22 18:00:00 15.5 13 Sudoeste 22 Sudoeste 0 -- -- 71
2021-02-22 17:00:00 15.7 17 Sudoeste 24 Sudoeste 0 -- -- 75
2021-02-22 16:00:00 15.7 19 Sudoeste 27 Sudoeste 0 -- -- 74
2021-02-22 15:00:00 15.5 18 Sudoeste 28 Sudoeste 0 -- -- 72
2021-02-22 14:00:00 15 23 Sudoeste 33 Sudoeste 0 -- -- 75
2021-02-22 13:00:00 14.6 24 Sudoeste 31 Sudoeste 0 -- -- 79
2021-02-22 12:00:00 14.1 18 Sudoeste 31 Sudoeste 0 -- -- 78
2021-02-22 11:00:00 13.9 4 Sur 8 Sur 0 -- -- 84
2021-02-22 10:00:00 10.7 4 Norte 9 Norte 0 -- -- 92
2021-02-22 09:00:00 8.8 5 Norte 11 Este 0 -- -- 96
2021-02-22 08:00:00 9 12 Este 33 Oeste 0 -- -- 95
2021-02-22 07:00:00 7 4 Norte 12 Norte 0 -- -- 98
2021-02-22 06:00:00 6.9 6 Norte 10 Norte 0 -- -- 97
2021-02-22 05:00:00 7.8 5 Norte 7 Norte 0 -- -- 93
2021-02-22 04:00:00 9.3 4 Nordeste 6 Norte 0 -- -- 89
2021-02-22 03:00:00 10 5 Norte 8 Noroeste 0 -- -- 84
2021-02-22 02:00:00 11.2 7 Noroeste 15 Noroeste 0 -- -- 77
2021-02-22 01:00:00 12 11 Noroeste 19 Noroeste 0 -- -- 70
2021-02-22 00:00:00 12.6 13 Noroeste 22 Noroeste 0 -- -- 78
2021-02-21 23:00:00 12.2 10 Noroeste 21 Noroeste 0 -- -- 78
2021-02-21 22:00:00 12.3 12 Noroeste 27 Noroeste 0 -- -- 76
2021-02-21 21:00:00 13.2 14 Noroeste 24 Oeste 0 -- -- 77
2021-02-21 20:00:00 12.9 17 Oeste 25 Oeste 0 -- -- 75
2021-02-21 19:00:00 12.9 13 Oeste 28 Oeste 0 -- -- 78
2021-02-21 18:00:00 14.3 19 Noroeste 35 Noroeste 0 -- -- 71
2021-02-21 17:00:00 14.3 23 Noroeste 44 Noroeste 0 -- -- 70
2021-02-21 16:00:00 14.4 24 Noroeste 44 Noroeste 0 -- -- 76
2021-02-21 15:00:00 13.9 21 Oeste 32 Oeste 0 -- -- 85
2021-02-21 14:00:00 12.6 12 Noroeste 17 Oeste 0 -- -- 94
2021-02-21 13:00:00 11.8 3 Noroeste 21 Oeste 0 -- -- 98
2021-02-21 12:00:00 12.7 25 Sudoeste 36 Sudoeste 0 -- -- 100
2021-02-21 11:00:00 12.8 26 Sudoeste 37 Sudoeste 0 -- -- 97
2021-02-21 10:00:00 13.3 25 Oeste 67 Sudoeste 0 -- -- 93
2021-02-21 09:00:00 14.9 53 Sudoeste 76 Sudoeste 0 -- -- 89
2021-02-21 08:00:00 15.6 30 Sur 39 Sudeste 0 -- -- 81
2021-02-21 07:00:00 15.4 19 Sur 28 Sudoeste 0 -- -- 82
2021-02-21 06:00:00 15.6 14 Sur 25 Oeste 0 -- -- 71
2021-02-21 05:00:00 15.6 17 Sudeste 28 Sur 0 -- -- 86
2021-02-21 04:00:00 16.4 21 Sur 41 Sudoeste 0 -- -- 78
2021-02-21 03:00:00 16.1 26 Sudeste 41 Sudeste 0 -- -- 73
2021-02-21 02:00:00 16.1 27 Sudeste 37 Sudeste 0 -- -- 69
2021-02-21 01:00:00 15.4 11 Este 23 Este 0 -- -- 72
2021-02-21 00:00:00 15.2 4 Nordeste 27 Este 0 -- -- 72
2021-02-20 23:00:00 14.7 12 Sudeste 52 Sudeste 0 -- -- 80
2021-02-20 22:00:00 14.7 35 Este 53 Este 0 -- -- 81
2021-02-20 21:00:00 15.1 27 Este 43 Este 0 -- -- 79
2021-02-20 20:00:00 15.3 28 Este 44 Este 0 -- -- 79
2021-02-20 19:00:00 16.2 15 Este 30 Este 0 -- -- 75
2021-02-20 18:00:00 19.1 4 Este 23 Este 0 -- -- 69
2021-02-20 17:00:00 19.3 15 Este 25 Sudeste 0 -- -- 67
2021-02-20 16:00:00 20 12 Sudeste 22 Sur 0 -- -- 67
2021-02-20 15:00:00 20.7 15 Sur 23 Sudeste 0 -- -- 68
2021-02-20 14:00:00 20.9 16 Sudeste 26 Sur 0 -- -- 59
2021-02-20 13:00:00 20.1 15 Sur 24 Este 0 -- -- 68
2021-02-20 12:00:00 19.5 4 Sur 7 Sur 0 -- -- 65
2021-02-20 11:00:00 17.4 5 Sudeste 10 Este 0 -- -- 74
2021-02-20 10:00:00 13.3 5 Norte 10 Norte 0 -- -- 84
2021-02-20 09:00:00 12 7 Norte 10 Noroeste 0 -- -- 86
2021-02-20 08:00:00 11.7 6 Norte 13 Noroeste 0 -- -- 87
2021-02-20 07:00:00 11.5 8 Norte 12 Noroeste 0 -- -- 90
2021-02-20 06:00:00 11.3 11 Norte 14 Norte 0 -- -- 91
2021-02-20 05:00:00 10.5 5 Norte 11 Norte 0 -- -- 95
2021-02-20 04:00:00 10.9 9 Norte 13 Norte 0 -- -- 93
2021-02-20 03:00:00 10.4 9 Norte 16 Norte 0 -- -- 94
2021-02-20 02:00:00 9.9 5 Norte 9 Sudeste 0 -- -- 97
2021-02-20 01:00:00 10.4 4 Norte 8 Norte 0 -- -- 96
2021-02-20 00:00:00 11.5 3 Nordeste 14 Sudeste 0 -- -- 93
2021-02-19 23:00:00 11.5 6 Nordeste 18 Norte 0 -- -- 92
2021-02-19 22:00:00 12.5 9 Norte 16 Norte 0 -- -- 88
2021-02-19 21:00:00 13.5 5 Noroeste 8 Norte 0 -- -- 84
2021-02-19 20:00:00 13.9 4 Noroeste 10 Nordeste 0 -- -- 87
2021-02-19 19:00:00 16.3 7 Sur 17 Sur 0 -- -- 85
2021-02-19 18:00:00 17.7 14 Sur 23 Sur 0 -- -- 80
2021-02-19 17:00:00 18.9 16 Sur 19 Sur 0 -- -- 75
2021-02-19 16:00:00 18.9 17 Sur 22 Sur 0 -- -- 74
2021-02-19 15:00:00 19.1 15 Sur 18 Sur 0 -- -- 77
2021-02-19 14:00:00 17.2 6 Sudoeste 10 Sudoeste 0 -- -- 81
2021-02-19 13:00:00 17.1 5 Sur 11 Oeste 0 -- -- 81
2021-02-19 12:00:00 14.4 4 Norte 11 Norte 0 -- -- 97
2021-02-19 11:00:00 11.5 7 Norte 12 Norte 0 -- -- 100
2021-02-19 10:00:00 8.7 7 Norte 14 Nordeste 0 -- -- 100
2021-02-19 09:00:00 7.5 9 Nordeste 13 Nordeste 0 -- -- 100
2021-02-19 08:00:00 7 8 Norte 15 Norte 0 -- -- 100
2021-02-19 07:00:00 6.4 8 Norte 15 Norte 0 -- -- 100
2021-02-19 06:00:00 6.7 8 Norte 14 Norte 0 -- -- 100
2021-02-19 05:00:00 7 8 Nordeste 11 Norte 0 -- -- 100
2021-02-19 04:00:00 7.5 8 Nordeste 14 Norte 0 -- -- 100
2021-02-19 03:00:00 8.5 8 Norte 14 Norte 0 -- -- 100
2021-02-19 02:00:00 8.6 7 Norte 13 Norte 0 -- -- 100
2021-02-19 01:00:00 8.9 8 Norte 12 Norte 0 -- -- 100
2021-02-19 00:00:00 9.6 8 Norte 10 Norte 0 -- -- 99
2021-02-18 23:00:00 10.4 6 Norte 9 Norte 0 -- -- 98
2021-02-18 22:00:00 10.7 5 Norte 8 Norte 0 -- -- 97
2021-02-18 21:00:00 11.9 4 Nordeste 5 Nordeste 0 -- -- 95
2021-02-18 20:00:00 13.9 3 Oeste 7 Sudoeste 0 -- -- 89
2021-02-18 19:00:00 15.4 6 Sudoeste 9 Sudoeste 0 -- -- 83
2021-02-18 18:00:00 16.5 8 Sudoeste 12 Sudoeste 0 -- -- 77
2021-02-18 17:00:00 17.3 9 Sudoeste 12 Sudoeste 0 -- -- 74
2021-02-18 16:00:00 17.2 9 Sudoeste 15 Sudoeste 0 -- -- 75
2021-02-18 15:00:00 16.4 8 Sudoeste 13 Oeste 0 -- -- 77
2021-02-18 14:00:00 15.1 5 Sudoeste 10 Sudoeste 0 -- -- 85
2021-02-18 13:00:00 13.6 6 Sur 19 Oeste 0 -- -- 96
2021-02-18 12:00:00 12.6 4 Oeste 7 Noroeste 0 -- -- 100
2021-02-18 11:00:00 10.9 4 Norte 10 Este 0 -- -- 100
2021-02-18 10:00:00 8.5 7 Nordeste 14 Norte 0 -- -- 100
2021-02-18 09:00:00 8.2 8 Norte 13 Norte 0 -- -- 100
2021-02-18 08:00:00 7.8 7 Nordeste 10 Norte 0 -- -- 100
2021-02-18 07:00:00 8.2 5 Norte 10 Nordeste 0 -- -- 100
2021-02-18 06:00:00 9.2 5 Norte 9 Norte 0 -- -- 100
2021-02-18 05:00:00 9.3 5 Norte 12 Este 0 -- -- 100
2021-02-18 04:00:00 11.1 8 Nordeste 13 Norte 0 -- -- 100
2021-02-18 03:00:00 11.5 6 Nordeste 8 Nordeste 0 -- -- 100
2021-02-18 02:00:00 10 3 Norte 9 Nordeste 0 -- -- 100
2021-02-18 01:00:00 11.1 4 Norte 8 Norte 0 -- -- 99
2021-02-18 00:00:00 11.4 7 Norte 11 Norte 0 -- -- 98
2021-02-17 23:00:00 11.9 5 Norte 9 Norte 0 -- -- 97
2021-02-17 22:00:00 12.4 4 Norte 7 Norte 0 -- -- 95
2021-02-17 21:00:00 13.1 4 Norte 9 Nordeste 0 -- -- 94
2021-02-17 20:00:00 14.9 2 Sudoeste 10 Sur 0 -- -- 90
2021-02-17 19:00:00 16.4 8 Sur 15 Sur 0 -- -- 85
2021-02-17 18:00:00 17.6 10 Sur 18 Sur 0 -- -- 79
2021-02-17 17:00:00 18 14 Sur 20 Sur 0 -- -- 74
2021-02-17 16:00:00 19 14 Sur 17 Sur 0 -- -- 72
2021-02-17 15:00:00 18.8 13 Sur 21 Sur 0 -- -- 72
2021-02-17 14:00:00 18.3 14 Sur 19 Sur 0 -- -- 74
2021-02-17 13:00:00 17.1 11 Sudoeste 15 Sudoeste 0 -- -- 76
2021-02-17 12:00:00 16.3 6 Norte 13 Nordeste 0 -- -- 79
2021-02-17 11:00:00 14.2 4 Norte 9 Norte 0 -- -- 86
2021-02-17 10:00:00 11.7 4 Norte 8 Norte 0 -- -- 98
2021-02-17 09:00:00 9.2 3 Norte 10 Nordeste 0 -- -- 100
2021-02-17 08:00:00 9.5 5 Norte 9 Norte 0 -- -- 99
2021-02-17 07:00:00 9.5 5 Norte 10 Norte 0 -- -- 98
2021-02-17 06:00:00 9.7 6 Norte 12 Norte 0 -- -- 98
2021-02-17 05:00:00 9.8 7 Norte 12 Norte 0 -- -- 97
2021-02-17 04:00:00 10 7 Norte 14 Norte 0 -- -- 97
2021-02-17 03:00:00 10.4 8 Norte 15 Norte 0 -- -- 96
2021-02-17 02:00:00 10.3 6 Norte 12 Nordeste 0 -- -- 95
2021-02-17 01:00:00 9.9 5 Norte 6 Norte 0 -- -- 95
2021-02-17 00:00:00 11.2 5 Norte 7 Norte 0 -- -- 93
2021-02-16 23:00:00 11.6 4 Norte 10 Norte 0 -- -- 90
2021-02-16 22:00:00 12.3 5 Norte 10 Norte 0 -- -- 88
2021-02-16 21:00:00 12.8 5 Norte 10 Este 0 -- -- 87
2021-02-16 20:00:00 13.8 4 Nordeste 10 Este 0 -- -- 82
2021-02-16 19:00:00 16.3 3 Norte 17 Este 0 -- -- 73
2021-02-16 18:00:00 18.5 11 Nordeste 22 Este 0 -- -- 66
2021-02-16 17:00:00 19.7 16 Este 22 Este 0 -- -- 60
2021-02-16 16:00:00 20.4 10 Este 26 Este 0 -- -- 57
2021-02-16 15:00:00 20.2 12 Este 27 Sudeste 0 -- -- 55
2021-02-16 14:00:00 19.9 18 Sudeste 32 Sudeste 0 -- -- 61
2021-02-16 13:00:00 19 22 Sudeste 38 Sudeste 0 -- -- 65
2021-02-16 12:00:00 18 19 Sudeste 41 Este 0 -- -- 66
2021-02-16 11:00:00 16.9 17 Este 46 Este 0 -- -- 67
2021-02-16 10:00:00 15.5 21 Este 46 Este 0 -- -- 71
2021-02-16 09:00:00 13.8 12 Sudeste 30 Sudeste 0 -- -- 82
2021-02-16 08:00:00 13.4 17 Sudeste 40 Sudeste 0 -- -- 83
2021-02-16 07:00:00 13.5 18 Sudeste 42 Sudeste 0 -- -- 81
2021-02-16 06:00:00 13.9 23 Sudeste 46 Sudeste 0 -- -- 75
2021-02-16 05:00:00 13.9 20 Este 54 Este 0 -- -- 78
2021-02-16 04:00:00 14.2 28 Este 63 Sudeste 0 -- -- 77
2021-02-16 03:00:00 14.2 31 Este 66 Este 0 -- -- 76
2021-02-16 02:00:00 13.9 23 Este 47 Sudeste 0 -- -- 80
2021-02-16 01:00:00 13.9 18 Sudeste 52 Este 0 -- -- 80
2021-02-16 00:00:00 14.1 29 Este 70 Este 0 -- -- 80
2021-02-15 23:00:00 14 26 Sudeste 52 Sudeste 0 -- -- 80
2021-02-15 22:00:00 14.3 28 Sudeste 60 Este 0 -- -- 78
2021-02-15 21:00:00 14.5 33 Este 85 Este 0 -- -- 78
2021-02-15 20:00:00 14.7 41 Este 81 Este 0 -- -- 75
2021-02-15 19:00:00 15.1 34 Este 78 Este 0 -- -- 73
2021-02-15 18:00:00 16.2 33 Este 79 Este 0 -- -- 68
2021-02-15 17:00:00 17 33 Este 66 Este 0 -- -- 70
2021-02-15 16:00:00 17.5 38 Este 66 Este 0 -- -- 67
2021-02-15 15:00:00 17.8 36 Sudeste 78 Este 0 -- -- 68
2021-02-15 14:00:00 17.7 32 Sudeste 65 Sudeste 0 -- -- 67
2021-02-15 13:00:00 17.4 26 Sudeste 67 Sudeste 0 -- -- 69
2021-02-15 12:00:00 17 33 Sudeste 65 Sudeste 0.6 -- -- 68
2021-02-15 11:00:00 16.5 24 Sudeste 63 Sudeste 0 -- -- 72
2021-02-15 10:00:00 15.7 27 Sudeste 58 Sudeste 0 -- -- 72
2021-02-15 09:00:00 14.5 33 Sudeste 55 Sudeste 0 -- -- 79
2021-02-15 08:00:00 14.1 27 Sudeste 57 Sudeste 0 -- -- 79
2021-02-15 07:00:00 14.2 32 Sudeste 64 Sudeste 0 -- -- 79
2021-02-15 06:00:00 14.3 39 Sudeste 70 Sudeste 0 -- -- 79
2021-02-15 05:00:00 14.4 39 Este 75 Sudeste 0 -- -- 80
2021-02-15 04:00:00 14.5 40 Sudeste 73 Este 0 -- -- 78
2021-02-15 03:00:00 14.6 41 Este 77 Este 0 -- -- 78
2021-02-15 02:00:00 14.7 39 Sudeste 75 Sudeste 0 -- -- 78
2021-02-15 01:00:00 14.7 34 Sudeste 75 Sudeste 0 -- -- 78
2021-02-15 00:00:00 14.6 36 Sudeste 63 Sudeste 0 -- -- 80
2021-02-14 23:00:00 14.7 34 Sudeste 56 Este 0 -- -- 82
2021-02-14 22:00:00 14.8 29 Sudeste 58 Sudeste 0 -- -- 81
2021-02-14 21:00:00 14.8 29 Sudeste 50 Sudeste 0 -- -- 79
2021-02-14 20:00:00 14.9 9 Este 33 Sudeste 0 -- -- 79
2021-02-14 19:00:00 15.6 17 Este 51 Sudeste 0 -- -- 74
2021-02-14 18:00:00 16.7 30 Este 63 Este 0 -- -- 70
2021-02-14 17:00:00 17.6 32 Este 58 Este 0 -- -- 66
2021-02-14 16:00:00 18.6 28 Este 60 Este 0 -- -- 63
2021-02-14 15:00:00 19.9 37 Este 54 Este 0 -- -- 46
2021-02-14 14:00:00 19.9 31 Este 53 Sudeste 0 -- -- 48
2021-02-14 13:00:00 19.1 28 Este 58 Este 0 -- -- 50
2021-02-14 12:00:00 19.1 15 Sudeste 33 Sudeste 0 -- -- 51
2021-02-14 11:00:00 18 12 Nordeste 34 Sudeste 0 -- -- 51
2021-02-14 10:00:00 14.2 6 Norte 18 Norte 0 -- -- 69
2021-02-14 09:00:00 10 10 Norte 17 Norte 0 -- -- 77
2021-02-14 08:00:00 8.2 10 Norte 18 Norte 0 -- -- 81
2021-02-14 07:00:00 7.6 7 Norte 18 Norte 0 -- -- 91
2021-02-14 06:00:00 7.5 10 Norte 15 Norte 0 -- -- 96
2021-02-14 05:00:00 8 9 Norte 15 Norte 0 -- -- 98
2021-02-14 04:00:00 8.4 8 Norte 12 Nordeste 0 -- -- 99
2021-02-14 03:00:00 8 10 Norte 16 Norte 0 -- -- 95
2021-02-14 02:00:00 9.1 10 Norte 14 Norte 0.2 -- -- 88
2021-02-14 01:00:00 9.4 10 Nordeste 14 Nordeste 0 -- -- 94
2021-02-14 00:00:00 10.3 8 Nordeste 15 Nordeste 0 -- -- 95
2021-02-13 23:00:00 11 10 Norte 16 Norte 0 -- -- 89
2021-02-13 22:00:00 12.2 7 Norte 12 Norte 0 -- -- 86
2021-02-13 21:00:00 13.2 9 Nordeste 10 Norte 0 -- -- 87
2021-02-13 20:00:00 14.6 5 Nordeste 10 Norte 0 -- -- 81
2021-02-13 19:00:00 18.2 5 Norte 14 Norte 0 -- -- 72
2021-02-13 18:00:00 19.8 8 Norte 16 Norte 0 -- -- 65
2021-02-13 17:00:00 19.3 0 Calma 12 Oeste 0 -- -- 79
2021-02-13 16:00:00 16.7 10 Oeste 12 Oeste 0 -- -- 84
2021-02-13 15:00:00 16.7 8 Sudoeste 12 Sudoeste 0 -- -- 79
2021-02-13 14:00:00 15.7 11 Oeste 17 Oeste 0 -- -- 81
2021-02-13 13:00:00 17.2 7 Nordeste 14 Nordeste 0 -- -- 73
2021-02-13 08:00:00 -- -- -- -- -- -- -- -- --
2021-02-13 07:00:00 9.1 8 Norte 13 Norte 0 -- -- 100
2021-02-13 06:00:00 9 5 Norte 9 Norte 0 -- -- 100
2021-02-13 05:00:00 9.1 4 Norte 8 Norte 0 -- -- 100
2021-02-13 04:00:00 9.6 4 Norte 6 Norte 0 -- -- 99
2021-02-13 03:00:00 10.4 4 Norte 6 Nordeste 0 -- -- 98
2021-02-13 02:00:00 11.1 3 Norte 8 Este 0 -- -- 97
2021-02-13 01:00:00 11.5 3 Nordeste 10 Este 0 -- -- 97
2021-02-13 00:00:00 11.4 9 Este 10 Este 0 -- -- 96
2021-02-12 23:00:00 12 7 Este 9 Este 0 -- -- 94
2021-02-12 22:00:00 13 5 Norte 9 Norte 0 -- -- 91
2021-02-12 21:00:00 13.7 5 Norte 14 Noroeste 0 -- -- 85
2021-02-12 20:00:00 14.4 7 Norte 18 Noroeste 0 -- -- 85
2021-02-12 19:00:00 16.2 8 Oeste 19 Noroeste 0 -- -- 81
2021-02-12 18:00:00 18.1 14 Noroeste 28 Noroeste 0 -- -- 75
2021-02-12 17:00:00 19.2 14 Noroeste 24 Noroeste 0 -- -- 68
2021-02-12 16:00:00 19.5 17 Noroeste 27 Noroeste 0 -- -- 57
2021-02-12 15:00:00 19.6 16 Noroeste 26 Noroeste 0 -- -- 59
2021-02-12 14:00:00 18.7 13 Norte 25 Noroeste 0 -- -- 71
2021-02-12 13:00:00 18.3 13 Noroeste 24 Noroeste 0 -- -- 82
2021-02-12 12:00:00 17.4 10 Sudoeste 14 Sudoeste 0 -- -- 88
2021-02-12 11:00:00 16 6 Norte 24 Noroeste 0 -- -- 93
2021-02-12 10:00:00 15.7 12 Oeste 17 Oeste 0 -- -- 99
2021-02-12 09:00:00 15.4 8 Oeste 14 Oeste 0 -- -- 100
2021-02-12 08:00:00 14.9 4 Noroeste 19 Oeste 0 -- -- 98
2021-02-12 07:00:00 15.3 10 Oeste 23 Oeste 0 -- -- 98
2021-02-12 06:00:00 15.4 13 Oeste 21 Oeste 0 -- -- 100
2021-02-12 05:00:00 15.5 10 Oeste 16 Oeste 0 -- -- 99
2021-02-12 04:00:00 15.6 12 Oeste 19 Oeste 0 -- -- 98
2021-02-12 03:00:00 15.1 8 Oeste 15 Oeste 0 -- -- 100
2021-02-12 02:00:00 14.3 4 Norte 8 Oeste 0 -- -- 99
2021-02-12 01:00:00 14.5 5 Oeste 9 Noroeste 0 -- -- 98
2021-02-12 00:00:00 14.8 5 Oeste 13 Oeste 0 -- -- 98
2021-02-11 23:00:00 14.5 0 Calma 5 Este 0 -- -- 98
2021-02-11 22:00:00 14.3 3 Norte 9 Este 0 -- -- 99
2021-02-11 21:00:00 14.7 4 Sudeste 21 Noroeste 0 -- -- 97
2021-02-11 20:00:00 15.3 12 Noroeste 20 Noroeste 0 -- -- 96
2021-02-11 19:00:00 16 10 Noroeste 23 Noroeste 0 -- -- 91
2021-02-11 18:00:00 17.5 17 Noroeste 25 Noroeste 0 -- -- 85
2021-02-11 17:00:00 15.8 14 Oeste 22 Oeste 0 -- -- 96
2021-02-11 16:00:00 15.9 17 Oeste 22 Oeste 0 -- -- 97
2021-02-11 15:00:00 15.7 19 Oeste 24 Sudoeste 0 -- -- 98
2021-02-11 14:00:00 15.9 19 Oeste 22 Oeste 0 -- -- 96
2021-02-11 13:00:00 17.2 14 Sudoeste 17 Oeste 0 -- -- 92
2021-02-11 12:00:00 17.5 10 Sudoeste 13 Sudoeste 0 -- -- 93
2021-02-11 11:00:00 16.2 0 Calma 7 Norte 0 -- -- 100
2021-02-11 10:00:00 14.5 4 Norte 7 Norte 0 -- -- 100
2021-02-11 09:00:00 13.8 3 Nordeste 8 Norte 0 -- -- 100
2021-02-11 08:00:00 13.5 3 Nordeste 6 Nordeste 0 -- -- 100
2021-02-11 07:00:00 14.4 0 Calma 4 Oeste 0 -- -- 99
2021-02-11 06:00:00 15.1 3 Sudoeste 4 Sudoeste 0 -- -- 99
2021-02-11 05:00:00 15.4 6 Oeste 15 Oeste 0 -- -- 99
2021-02-11 04:00:00 15.4 6 Oeste 18 Sudoeste 0 -- -- 99
2021-02-11 03:00:00 15.6 16 Sudoeste 18 Sudoeste 0 -- -- 99
2021-02-11 02:00:00 15.7 15 Sudoeste 18 Sudoeste 0 -- -- 99
2021-02-11 01:00:00 15.6 6 Oeste 21 Sudoeste 0 -- -- 99
2021-02-11 00:00:00 15.7 17 Sudoeste 22 Sudoeste 0 -- -- 99
2021-02-10 23:00:00 15.5 9 Sudoeste 12 Sudoeste 0 -- -- 100
2021-02-10 22:00:00 15.5 7 Sur 12 Oeste 0 -- -- 99
2021-02-10 21:00:00 15.7 10 Oeste 21 Oeste 0 -- -- 99
2021-02-10 20:00:00 15.9 16 Oeste 21 Oeste 0 -- -- 98
2021-02-10 19:00:00 15.9 17 Oeste 21 Sudoeste 0 -- -- 98
2021-02-10 18:00:00 16.1 16 Sudoeste 31 Sudoeste 0 -- -- 97
2021-02-10 17:00:00 16.2 24 Sudoeste 29 Sudoeste 0 -- -- 96
2021-02-10 16:00:00 16.3 19 Oeste 37 Oeste 0 -- -- 97
2021-02-10 15:00:00 16.3 26 Oeste 36 Sudoeste 0 -- -- 95
2021-02-10 14:00:00 16.3 28 Oeste 41 Oeste 0 -- -- 93
2021-02-10 13:00:00 16.4 36 Oeste 46 Oeste 0 -- -- 92
2021-02-10 12:00:00 16.3 32 Oeste 41 Oeste 0 -- -- 92
2021-02-10 11:00:00 16.1 31 Oeste 39 Sudoeste 0 -- -- 91
2021-02-10 10:00:00 16 30 Oeste 41 Oeste 0 -- -- 92
2021-02-10 09:00:00 15.8 27 Oeste 38 Oeste 0 -- -- 94
2021-02-10 08:00:00 15.7 29 Oeste 40 Oeste 0 -- -- 94
2021-02-10 07:00:00 15.7 26 Oeste 40 Oeste 0 -- -- 95
2021-02-10 06:00:00 15.7 27 Oeste 37 Oeste 0 -- -- 95
2021-02-10 05:00:00 15.7 31 Oeste 41 Oeste 0 -- -- 94
2021-02-10 04:00:00 15.6 32 Oeste 40 Oeste 0 -- -- 95
2021-02-10 03:00:00 14.7 21 Oeste 45 Oeste 0 -- -- 96
2021-02-10 02:00:00 14.4 22 Oeste 70 Oeste 0 -- -- 96
2021-02-10 01:00:00 15.7 29 Oeste 39 Sudoeste 0 -- -- 95
2021-02-10 00:00:00 15.6 32 Sudoeste 44 Oeste 0 -- -- 94
2021-02-09 23:00:00 15.3 36 Oeste 57 Oeste 0 -- -- 94
2021-02-09 22:00:00 15.9 35 Oeste 45 Oeste 0 -- -- 92
2021-02-09 21:00:00 15.3 23 Oeste 50 Oeste 0 -- -- 91
2021-02-09 20:00:00 15.6 39 Oeste 49 Oeste 0 -- -- 95
2021-02-09 19:00:00 15 32 Oeste 60 Oeste 0 -- -- 93
2021-02-09 18:00:00 16 37 Sudoeste 48 Sudoeste 0 -- -- 92
2021-02-09 17:00:00 16 32 Oeste 53 Sudoeste 0 -- -- 91
2021-02-09 16:00:00 16.2 42 Sudoeste 53 Sudoeste 0 -- -- 89
2021-02-09 15:00:00 16.2 31 Oeste 44 Sudoeste 0 -- -- 91
2021-02-09 14:00:00 16.5 37 Sudoeste 49 Sudoeste 0 -- -- 87
2021-02-09 13:00:00 16 38 Sudoeste 54 Sudoeste 0 -- -- 89
2021-02-09 12:00:00 16.2 38 Sudoeste 48 Sudoeste 0 -- -- 90
2021-02-09 11:00:00 15.9 33 Sudoeste 44 Sudoeste 0 -- -- 87
2021-02-09 10:00:00 15.3 36 Sudoeste 45 Sudoeste 0 -- -- 91
2021-02-09 09:00:00 15 28 Sudoeste 36 Oeste 0 -- -- 86
2021-02-09 08:00:00 14.4 28 Oeste 38 Oeste 0 -- -- 90
2021-02-09 07:00:00 13.9 30 Oeste 47 Oeste 0 -- -- 93
2021-02-09 06:00:00 14.9 26 Oeste 39 Sudoeste 0 -- -- 91
2021-02-09 05:00:00 14.8 32 Sudoeste 41 Sudoeste 0 -- -- 90
2021-02-09 04:00:00 14.8 18 Sudoeste 30 Oeste 0 -- -- 88
2021-02-09 03:00:00 14.8 22 Oeste 32 Sudoeste 0 -- -- 85
2021-02-09 02:00:00 14.9 21 Oeste 27 Sudoeste 0 -- -- 86
2021-02-09 01:00:00 14.9 20 Sudoeste 25 Sudoeste 0 -- -- 86
2021-02-09 00:00:00 14 8 Oeste 15 Oeste 0 -- -- 89
2021-02-08 23:00:00 13.8 8 Oeste 17 Oeste 0 -- -- 90
2021-02-08 22:00:00 13.9 10 Oeste 17 Oeste 0 -- -- 86
2021-02-08 21:00:00 14.1 10 Oeste 20 Oeste 0 -- -- 85
2021-02-08 20:00:00 14.6 15 Oeste 32 Oeste 0 -- -- 81
2021-02-08 19:00:00 15.2 20 Oeste 33 Oeste 0 -- -- 79
2021-02-08 18:00:00 16.2 22 Oeste 36 Oeste 0 -- -- 75
2021-02-08 17:00:00 16.2 25 Oeste 38 Oeste 0 -- -- 75
2021-02-08 16:00:00 16.3 26 Oeste 41 Oeste 0 -- -- 71
2021-02-08 15:00:00 16.3 22 Oeste 36 Noroeste 0 -- -- 76
2021-02-08 14:00:00 16.5 21 Noroeste 31 Noroeste 0 -- -- 76
2021-02-08 13:00:00 16.2 19 Noroeste 35 Noroeste 0 -- -- 82
2021-02-08 12:00:00 15.5 18 Noroeste 32 Oeste 0 -- -- 83
2021-02-08 11:00:00 14.7 10 Noroeste 18 Noroeste 0.2 -- -- 89
2021-02-08 10:00:00 13.6 11 Oeste 20 Oeste 0.2 -- -- 94
2021-02-08 09:00:00 13.7 15 Oeste 48 Oeste 0.6 -- -- 98
2021-02-08 08:00:00 13.9 27 Oeste 77 Sudoeste 6.6 -- -- 99
2021-02-08 07:00:00 14.4 49 Sudoeste 77 Sudoeste 1.6 -- -- 100
2021-02-08 06:00:00 14.8 55 Sudoeste 70 Sudoeste 0 -- -- 94
2021-02-08 05:00:00 15 55 Sudoeste 69 Sudoeste 0 -- -- 91
2021-02-08 04:00:00 14.8 49 Sudoeste 67 Sudoeste 0 -- -- 91
2021-02-08 03:00:00 14.8 44 Sudoeste 63 Sudoeste 0 -- -- 89
2021-02-08 02:00:00 14.5 45 Sudoeste 60 Sudoeste 0 -- -- 89
2021-02-08 01:00:00 14.4 43 Sudoeste 55 Sudoeste 0 -- -- 91
2021-02-08 00:00:00 13.5 39 Sudoeste 57 Sudoeste 0 -- -- 95
2021-02-07 23:00:00 14 36 Sudoeste 47 Sudoeste 0 -- -- 87
2021-02-07 22:00:00 13.9 26 Oeste 48 Oeste 0 -- -- 84
2021-02-07 21:00:00 14.3 27 Oeste 45 Oeste 0 -- -- 80
2021-02-07 20:00:00 12.8 8 Oeste 24 Oeste 0 -- -- 87
2021-02-07 19:00:00 13.4 23 Oeste 36 Oeste 0 -- -- 83
2021-02-07 18:00:00 14 19 Oeste 33 Oeste 0 -- -- 74
2021-02-07 17:00:00 14 18 Oeste 33 Oeste 0 -- -- 71
2021-02-07 16:00:00 13.7 21 Oeste 37 Oeste 0 -- -- 69
2021-02-07 15:00:00 14.3 27 Noroeste 43 Noroeste 0 -- -- 65
2021-02-07 14:00:00 13.6 23 Noroeste 37 Noroeste 0 -- -- 73
2021-02-07 13:00:00 13.3 26 Noroeste 42 Noroeste 0 -- -- 70
2021-02-07 12:00:00 13.2 24 Noroeste 38 Noroeste 0 -- -- 75
2021-02-07 11:00:00 12 16 Noroeste 41 Noroeste 0 -- -- 84
2021-02-07 10:00:00 11.8 19 Noroeste 30 Noroeste 0 -- -- 90
2021-02-07 09:00:00 11.3 10 Noroeste 16 Noroeste 0 -- -- 93
2021-02-07 08:00:00 11.2 8 Noroeste 14 Noroeste 0 -- -- 93
2021-02-07 07:00:00 11.2 5 Norte 13 Noroeste 0 -- -- 96
2021-02-07 06:00:00 11.3 5 Noroeste 12 Oeste 0 -- -- 96
2021-02-07 05:00:00 11.2 6 Noroeste 14 Noroeste 0 -- -- 96
2021-02-07 04:00:00 11 5 Noroeste 15 Noroeste 0 -- -- 96
2021-02-07 03:00:00 10.9 10 Noroeste 21 Oeste 0 -- -- 96
2021-02-07 02:00:00 11.3 14 Oeste 27 Oeste 0 -- -- 91
2021-02-07 01:00:00 11.4 13 Noroeste 45 Oeste 0 -- -- 92
2021-02-07 00:00:00 11.7 22 Oeste 46 Noroeste 0 -- -- 91
2021-02-06 23:00:00 12.3 18 Noroeste 36 Noroeste 0 -- -- 80
2021-02-06 22:00:00 12.9 17 Noroeste 30 Noroeste 0 -- -- 79
2021-02-06 21:00:00 13.1 13 Noroeste 28 Noroeste 0 -- -- 80
2021-02-06 20:00:00 13.3 15 Noroeste 30 Oeste 0 -- -- 81
2021-02-06 19:00:00 13.6 17 Oeste 33 Oeste 0 -- -- 81
2021-02-06 18:00:00 14.2 19 Oeste 38 Oeste 0 -- -- 78
2021-02-06 17:00:00 15.1 24 Oeste 38 Oeste 0 -- -- 77
2021-02-06 16:00:00 14.6 21 Oeste 43 Oeste 0 -- -- 83
2021-02-06 15:00:00 15.4 28 Oeste 43 Oeste 0 -- -- 78
2021-02-06 14:00:00 14.7 30 Oeste 40 Oeste 0 -- -- 85
2021-02-06 13:00:00 14.5 24 Oeste 45 Oeste 0 -- -- 76
2021-02-06 12:00:00 13.7 20 Oeste 35 Oeste 0 -- -- 85
2021-02-06 11:00:00 13.6 18 Oeste 46 Oeste 0 -- -- 85
2021-02-06 10:00:00 14.1 18 Oeste 41 Oeste 0 -- -- 80
2021-02-06 09:00:00 13 12 Oeste 20 Oeste 0 -- -- 84
2021-02-06 08:00:00 13.2 13 Oeste 22 Oeste 0 -- -- 84
2021-02-06 07:00:00 12.9 12 Oeste 21 Noroeste 0 -- -- 85
2021-02-06 06:00:00 12.6 11 Oeste 19 Oeste 0 -- -- 85
2021-02-06 05:00:00 12.8 14 Oeste 23 Oeste 0 -- -- 84
2021-02-06 04:00:00 12.8 14 Oeste 22 Oeste 0 -- -- 84
2021-02-06 03:00:00 13.3 14 Oeste 37 Oeste 0 -- -- 87
2021-02-06 02:00:00 13.9 22 Oeste 40 Oeste 0 -- -- 86
2021-02-06 01:00:00 14.3 26 Oeste 40 Sudoeste 0 -- -- 88
2021-02-06 00:00:00 14 35 Sudoeste 51 Sudoeste 0 -- -- 92
2021-02-05 23:00:00 14.4 44 Sudoeste 59 Sudoeste 0 -- -- 87
2021-02-05 22:00:00 14.5 41 Sudoeste 73 Sudoeste 0 -- -- 88
2021-02-05 21:00:00 15.3 44 Sudoeste 61 Sudoeste 0 -- -- 81
2021-02-05 20:00:00 15.1 42 Sudoeste 62 Sudoeste 0 -- -- 87
2021-02-05 19:00:00 14.9 42 Sur 53 Sur 0 -- -- 86
2021-02-05 18:00:00 14.6 41 Sur 49 Sur 0 -- -- 84
2021-02-05 17:00:00 14.5 40 Sudoeste 52 Sudoeste 0 -- -- 87
2021-02-05 16:00:00 13.9 39 Sudoeste 50 Sudoeste 0 -- -- 94
2021-02-05 15:00:00 14.2 28 Sur 36 Sur 0 -- -- 97
2021-02-05 14:00:00 15.4 23 Sudoeste 27 Sudoeste 0 -- -- 93
2021-02-05 13:00:00 15.7 13 Sur 17 Sur 0 -- -- 90
2021-02-05 12:00:00 15.3 3 Este 10 Noroeste 0 -- -- 91
2021-02-05 11:00:00 14.7 9 Oeste 32 Sudoeste 0 -- -- 97
2021-02-05 10:00:00 15.1 16 Sur 23 Sur 0 -- -- 97
2021-02-05 09:00:00 13.3 2 Este 15 Sur 0 -- -- 98
2021-02-05 08:00:00 12.9 5 Norte 8 Norte 0 -- -- 96
2021-02-05 07:00:00 12.6 4 Noroeste 11 Norte 0 -- -- 97
2021-02-05 06:00:00 13 3 Nordeste 13 Este 0 -- -- 94
2021-02-05 05:00:00 13.4 13 Sudeste 22 Sudeste 0 -- -- 95
2021-02-05 04:00:00 14 19 Sudeste 32 Sur 0 -- -- 92
2021-02-05 03:00:00 14.9 16 Sudoeste 24 Oeste 0 -- -- 92
2021-02-05 02:00:00 13.8 3 Oeste 11 Nordeste 0 -- -- 90
2021-02-05 01:00:00 13.8 3 Norte 16 Nordeste 0 -- -- 90
2021-02-05 00:00:00 14.7 5 Norte 15 Norte 0 -- -- 89
2021-02-04 23:00:00 15.1 6 Noroeste 37 Noroeste 0 -- -- 86
2021-02-04 22:00:00 14.8 5 Noroeste 24 Nordeste 0 -- -- 86
2021-02-04 21:00:00 14.5 6 Nordeste 17 Sudeste 0 -- -- 94
2021-02-04 20:00:00 15.4 11 Sur 14 Sur 0 -- -- 94
2021-02-04 19:00:00 15.7 5 Oeste 12 Sudeste 0 -- -- 90
2021-02-04 18:00:00 16.6 9 Sudeste 13 Sudeste 0 -- -- 87
2021-02-04 17:00:00 17.2 12 Sudeste 21 Sudoeste 0 -- -- 86
2021-02-04 16:00:00 16.9 12 Sudoeste 18 Sur 0 -- -- 87
2021-02-04 15:00:00 18.3 14 Sur 18 Sur 0 -- -- 78
2021-02-04 14:00:00 18 13 Sur 21 Sur 0 -- -- 81
2021-02-04 13:00:00 17.8 15 Sur 24 Sur 0 -- -- 82
2021-02-04 12:00:00 16.9 18 Sur 30 Sur 0 -- -- 85
2021-02-04 11:00:00 16.3 23 Sur 30 Sur 0 -- -- 84
2021-02-04 10:00:00 13.3 8 Sudeste 12 Este 0 -- -- 99
2021-02-04 09:00:00 11.1 5 Norte 8 Norte 0 -- -- 100
2021-02-04 08:00:00 11.5 4 Nordeste 6 Norte 0 -- -- 100
2021-02-04 07:00:00 11.8 4 Norte 7 Norte 0 -- -- 99
2021-02-04 06:00:00 12.6 4 Norte 7 Norte 0 -- -- 98
2021-02-04 05:00:00 13.1 6 Nordeste 11 Norte 0 -- -- 97
2021-02-04 04:00:00 13.9 3 Nordeste 9 Sudeste 0 -- -- 96
2021-02-04 03:00:00 14.1 4 Norte 8 Norte 0 -- -- 94
2021-02-04 02:00:00 14.9 2 Nordeste 8 Sudoeste 0 -- -- 90
2021-02-04 01:00:00 15.4 5 Sudoeste 18 Oeste 0 -- -- 88
2021-02-04 00:00:00 15.5 14 Sudoeste 21 Sudoeste 0 -- -- 86
2021-02-03 23:00:00 15.5 13 Sudoeste 19 Sudoeste 0 -- -- 84
2021-02-03 22:00:00 15.4 21 Sudoeste 28 Sudoeste 0 -- -- 82
2021-02-03 21:00:00 14.3 0 Calma 4 Oeste 0 -- -- 92
2021-02-03 20:00:00 14.6 0 Calma 10 Oeste 0 -- -- 89
2021-02-03 19:00:00 15.4 9 Oeste 17 Sudoeste 0 -- -- 89
2021-02-03 18:00:00 16.1 14 Oeste 21 Oeste 0 -- -- 86
2021-02-03 17:00:00 16.5 16 Sudoeste 21 Sudoeste 0 -- -- 85
2021-02-03 16:00:00 17.2 17 Sudoeste 21 Sudoeste 0 -- -- 84
2021-02-03 15:00:00 17.5 15 Sudoeste 23 Oeste 0 -- -- 83
2021-02-03 14:00:00 17.2 19 Oeste 25 Oeste 0 -- -- 81
2021-02-03 13:00:00 16.6 16 Oeste 21 Sudoeste 0 -- -- 87
2021-02-03 12:00:00 16.5 4 Sudoeste 8 Nordeste 0 -- -- 85
2021-02-03 11:00:00 13.5 5 Norte 9 Norte 0 -- -- 99
2021-02-03 10:00:00 11.8 5 Norte 8 Norte 0 -- -- 100
2021-02-03 09:00:00 10.8 5 Norte 9 Norte 0 -- -- 100
2021-02-03 08:00:00 11.4 5 Norte 8 Norte 0 -- -- 100
2021-02-03 07:00:00 11.8 5 Norte 8 Norte 0 -- -- 100
2021-02-03 06:00:00 12.4 3 Norte 6 Este 0 -- -- 100
2021-02-03 05:00:00 12.3 4 Nordeste 7 Nordeste 0 -- -- 100
2021-02-03 04:00:00 12 4 Norte 6 Norte 0 -- -- 100
2021-02-03 03:00:00 11.5 4 Nordeste 5 Este 0 -- -- 100
2021-02-03 02:00:00 12.2 3 Este 5 Este 0 -- -- 100
2021-02-03 01:00:00 12.1 4 Este 6 Este 0 -- -- 99
2021-02-03 00:00:00 12.5 0 Calma 8 Este 0 -- -- 98
2021-02-02 23:00:00 12.5 5 Este 6 Nordeste 0 -- -- 96
2021-02-02 22:00:00 13.2 3 Sudeste 8 Norte 0 -- -- 95
2021-02-02 21:00:00 13.9 5 Norte 15 Norte 0 -- -- 91
2021-02-02 20:00:00 14.5 8 Norte 16 Noroeste 0 -- -- 89
2021-02-02 19:00:00 15.5 10 Noroeste 21 Noroeste 0 -- -- 84
2021-02-02 18:00:00 17.3 12 Noroeste 20 Oeste 0 -- -- 78
2021-02-02 17:00:00 17.8 12 Oeste 26 Oeste 0 -- -- 79
2021-02-02 16:00:00 17.1 18 Oeste 23 Oeste 0 -- -- 86
2021-02-02 15:00:00 16.9 11 Sudoeste 18 Oeste 0 -- -- 87
2021-02-02 14:00:00 17 11 Sudoeste 14 Oeste 0 -- -- 84
2021-02-02 13:00:00 16.8 10 Noroeste 17 Oeste 0 -- -- 82
2021-02-02 12:00:00 16 13 Oeste 16 Sudoeste 0 -- -- 92
2021-02-02 11:00:00 15.7 3 Norte 8 Norte 0 -- -- 87
2021-02-02 10:00:00 14.3 3 Nordeste 5 Nordeste 0 -- -- 100
2021-02-02 09:00:00 13.1 2 Nordeste 5 Nordeste 0 -- -- 100
2021-02-02 08:00:00 13 3 Norte 7 Nordeste 0 -- -- 100
2021-02-02 07:00:00 12.7 3 Norte 11 Norte 0 -- -- 100
2021-02-02 06:00:00 12.6 3 Norte 7 Nordeste 0 -- -- 100
2021-02-02 05:00:00 12.4 4 Norte 8 Norte 0 -- -- 100
2021-02-02 04:00:00 11.2 4 Nordeste 6 Nordeste 0 -- -- 100
2021-02-02 03:00:00 12.1 5 Norte 6 Nordeste 0 -- -- 100
2021-02-02 02:00:00 12.1 3 Nordeste 8 Norte 0 -- -- 100
2021-02-02 01:00:00 12.8 3 Norte 6 Nordeste 0 -- -- 98
2021-02-02 00:00:00 13.7 0 Calma 5 Oeste 0 -- -- 96
2021-02-01 23:00:00 14.3 4 Oeste 6 Oeste 0 -- -- 95
2021-02-01 22:00:00 14.8 0 Calma 11 Noroeste 0 -- -- 93
2021-02-01 21:00:00 15.2 6 Noroeste 10 Noroeste 0 -- -- 89
2021-02-01 20:00:00 15.3 5 Noroeste 15 Noroeste 0 -- -- 87
2021-02-01 19:00:00 15.6 8 Oeste 23 Noroeste 0 -- -- 85
2021-02-01 18:00:00 15.9 13 Oeste 28 Noroeste 0 -- -- 83
2021-02-01 17:00:00 16.8 15 Noroeste 30 Noroeste 0 -- -- 78
2021-02-01 16:00:00 18.3 19 Noroeste 31 Noroeste 0 -- -- 73
2021-02-01 15:00:00 17.8 21 Noroeste 36 Noroeste 0 -- -- 76
2021-02-01 14:00:00 17.9 19 Noroeste 40 Noroeste 0 -- -- 79
2021-02-01 13:00:00 17 23 Oeste 34 Noroeste 0 -- -- 84
2021-02-01 12:00:00 16.5 14 Noroeste 28 Noroeste 0 -- -- 86
2021-02-01 11:00:00 16.3 15 Noroeste 27 Noroeste 0 -- -- 89
2021-02-01 10:00:00 15.9 9 Oeste 22 Noroeste 0 -- -- 96
2021-02-01 09:00:00 15.6 13 Oeste 24 Noroeste 0 -- -- 97
2021-02-01 08:00:00 15.7 14 Oeste 25 Noroeste 0 -- -- 96
2021-02-01 07:00:00 15.7 14 Oeste 26 Oeste 0 -- -- 96
2021-02-01 06:00:00 15.9 12 Oeste 29 Oeste 0 -- -- 98
2021-02-01 05:00:00 15.9 15 Oeste 30 Oeste 0 -- -- 98
2021-02-01 04:00:00 15.8 21 Oeste 30 Oeste 0 -- -- 98
2021-02-01 03:00:00 15.8 23 Oeste 33 Oeste 0 -- -- 98
2021-02-01 02:00:00 15.5 18 Oeste 36 Oeste 0 -- -- 98
2021-02-01 01:00:00 15.6 25 Oeste 34 Oeste 0 -- -- 96
2021-02-01 00:00:00 15.1 24 Oeste 38 Oeste 0 -- -- 99
2021-01-31 23:00:00 15.3 21 Oeste 37 Oeste 0 -- -- 95
2021-01-31 22:00:00 15.7 26 Oeste 34 Oeste 0 -- -- 92
2021-01-31 21:00:00 15.8 24 Oeste 33 Oeste 0 -- -- 90
2021-01-31 20:00:00 15.8 26 Oeste 35 Oeste 0 -- -- 90
2021-01-31 19:00:00 15.8 27 Oeste 35 Oeste 0 -- -- 92
2021-01-31 18:00:00 15.9 24 Oeste 34 Oeste 0 -- -- 90
2021-01-31 17:00:00 16.3 24 Oeste 35 Oeste 0 -- -- 89
2021-01-31 16:00:00 16.6 26 Oeste 37 Oeste 0 -- -- 85
2021-01-31 15:00:00 16.6 26 Oeste 39 Oeste 0 -- -- 86
2021-01-31 14:00:00 16.3 25 Oeste 36 Oeste 0 -- -- 84
2021-01-31 13:00:00 16.4 19 Oeste 35 Oeste 0 -- -- 84
2021-01-31 12:00:00 15.9 20 Oeste 29 Oeste 0 -- -- 86
2021-01-31 11:00:00 15.6 12 Oeste 24 Oeste 0 -- -- 86
2021-01-31 10:00:00 14.5 6 Oeste 13 Oeste 0 -- -- 89
2021-01-31 09:00:00 13.6 10 Sudoeste 17 Oeste 0 -- -- 90
2021-01-31 08:00:00 13 6 Noroeste 14 Oeste 0 -- -- 89
2021-01-31 07:00:00 13.2 7 Noroeste 17 Noroeste 0 -- -- 87
2021-01-31 06:00:00 12.7 9 Noroeste 15 Noroeste 0 -- -- 89
2021-01-31 05:00:00 13 11 Noroeste 17 Oeste 0 -- -- 86
2021-01-31 04:00:00 13 8 Noroeste 16 Noroeste 0 -- -- 87
2021-01-31 03:00:00 13.1 8 Noroeste 21 Noroeste 0 -- -- 86
2021-01-31 02:00:00 13.2 13 Noroeste 19 Oeste 0 -- -- 87
2021-01-31 01:00:00 12.9 10 Noroeste 17 Noroeste 0 -- -- 83
2021-01-31 00:00:00 13.6 11 Noroeste 26 Norte 0 -- -- 75
2021-01-30 23:00:00 13.7 11 Noroeste 24 Noroeste 0 -- -- 82
2021-01-30 22:00:00 14.5 18 Noroeste 30 Noroeste 0 -- -- 88
2021-01-30 21:00:00 14.7 15 Noroeste 35 Noroeste 0 -- -- 90
2021-01-30 20:00:00 14.7 15 Noroeste 23 Oeste 0 -- -- 92
2021-01-30 19:00:00 14.8 10 Oeste 19 Oeste 0 -- -- 92
2021-01-30 18:00:00 16 12 Noroeste 30 Noroeste 0 -- -- 87
2021-01-30 17:00:00 16.7 18 Noroeste 33 Noroeste 0 -- -- 84
2021-01-30 16:00:00 17.3 17 Oeste 32 Oeste 0 -- -- 90
2021-01-30 15:00:00 15.9 23 Oeste 43 Oeste 0 -- -- 100
2021-01-30 14:00:00 15.4 31 Oeste 44 Sudoeste 0 -- -- 100
2021-01-30 13:00:00 15.3 32 Oeste 44 Sudoeste 0 -- -- 100
2021-01-30 12:00:00 15.7 31 Sudoeste 38 Sudoeste 0 -- -- 96
2021-01-30 11:00:00 15.8 22 Oeste 30 Sudoeste 0 -- -- 95
2021-01-30 10:00:00 15.3 17 Sudoeste 29 Oeste 0 -- -- 97
2021-01-30 09:00:00 14.6 24 Oeste 37 Sudoeste 0 -- -- 100
2021-01-30 08:00:00 14.3 26 Oeste 37 Oeste 0 -- -- 98
2021-01-30 07:00:00 14.7 26 Oeste 36 Oeste 0 -- -- 91
2021-01-30 06:00:00 15.2 26 Oeste 36 Oeste 0 -- -- 90
2021-01-30 05:00:00 15.2 23 Sudoeste 30 Oeste 0 -- -- 90
2021-01-30 04:00:00 15 20 Oeste 24 Oeste 0 -- -- 91
2021-01-30 03:00:00 15 18 Oeste 22 Oeste 0 -- -- 90
2021-01-30 02:00:00 15.1 13 Oeste 19 Noroeste 0 -- -- 89
2021-01-30 01:00:00 14.8 8 Oeste 18 Noroeste 0 -- -- 89
2021-01-30 00:00:00 15 6 Oeste 14 Noroeste 0 -- -- 90
2021-01-29 23:00:00 14.9 8 Noroeste 19 Oeste 0 -- -- 91
2021-01-29 22:00:00 14.8 8 Oeste 18 Oeste 0 -- -- 90
2021-01-29 21:00:00 14.9 7 Oeste 13 Oeste 0 -- -- 91
2021-01-29 20:00:00 15 6 Oeste 24 Oeste 0 -- -- 90
2021-01-29 19:00:00 15.3 13 Oeste 21 Sudoeste 0 -- -- 89
2021-01-29 18:00:00 15.5 13 Oeste 21 Oeste 0 -- -- 88
2021-01-29 17:00:00 15.8 14 Oeste 21 Sudoeste 0 -- -- 88
2021-01-29 16:00:00 16.1 12 Oeste 15 Oeste 0 -- -- 90
2021-01-29 15:00:00 16.4 10 Oeste 14 Sudoeste 0 -- -- 91
2021-01-29 14:00:00 16.3 8 Oeste 13 Oeste 0 -- -- 90
2021-01-29 13:00:00 16 8 Oeste 11 Oeste 0 -- -- 92
2021-01-29 12:00:00 15.4 4 Oeste 8 Oeste 0 -- -- 98
2021-01-29 11:00:00 14.9 3 Sur 6 Sur 0 -- -- 100
2021-01-29 10:00:00 14.2 4 Nordeste 8 Noroeste 0 -- -- 100
2021-01-29 09:00:00 14.1 2 Norte 5 Nordeste 0 -- -- 100
2021-01-29 08:00:00 13.9 3 Nordeste 9 Noroeste 0 -- -- 100
2021-01-29 07:00:00 14 7 Sudoeste 14 Sudoeste 0 -- -- 100
2021-01-29 06:00:00 14 8 Oeste 14 Sudoeste 0 -- -- 100
2021-01-29 05:00:00 13.9 10 Sudoeste 14 Sudoeste 0 -- -- 100
2021-01-29 04:00:00 13.7 9 Sudoeste 13 Sudoeste 0.2 -- -- 100
2021-01-29 03:00:00 13.7 8 Sudoeste 17 Sudoeste 0 -- -- 100
2021-01-29 02:00:00 13.8 11 Sudoeste 17 Sudoeste 0 -- -- 100
2021-01-29 01:00:00 13.3 2 Noroeste 9 Norte 0 -- -- 100
2021-01-29 00:00:00 13.3 4 Norte 10 Norte 0 -- -- 100
2021-01-28 23:00:00 13.7 5 Nordeste 8 Norte 0 -- -- 100
2021-01-28 22:00:00 13.8 3 Noroeste 10 Norte 0 -- -- 100
2021-01-28 21:00:00 14 6 Norte 12 Norte 0 -- -- 100
2021-01-28 20:00:00 14 5 Norte 8 Norte 0 -- -- 98
2021-01-28 19:00:00 15.4 0 Calma 6 Nordeste 0 -- -- 94
2021-01-28 18:00:00 17.4 3 Noroeste 13 Noroeste 0 -- -- 89
2021-01-28 17:00:00 17.5 13 Sudoeste 18 Oeste 0 -- -- 92
2021-01-28 16:00:00 17 15 Oeste 21 Oeste 0 -- -- 93
2021-01-28 15:00:00 16.1 17 Oeste 20 Oeste 0 -- -- 97
2021-01-28 14:00:00 15.4 8 Sudoeste 9 Sudoeste 0 -- -- 96
2021-01-28 13:00:00 15.2 7 Sudoeste 10 Sudoeste 0 -- -- 99
2021-01-28 12:00:00 14.5 4 Nordeste 12 Nordeste 0 -- -- 100
2021-01-28 11:00:00 13.9 6 Nordeste 10 Nordeste 0 -- -- 100
2021-01-28 10:00:00 14.1 6 Nordeste 10 Este 0 -- -- 100
2021-01-28 09:00:00 14.2 0 Calma 5 Sudoeste 0 -- -- 100
2021-01-28 08:00:00 14.3 4 Sur 13 Sudoeste 0 -- -- 100
2021-01-28 07:00:00 14.8 10 Sur 15 Sur 0 -- -- 100
2021-01-28 06:00:00 14.9 10 Sur 15 Sur 0 -- -- 100
2021-01-28 05:00:00 14.9 9 Sur 16 Sudoeste 0 -- -- 100
2021-01-28 04:00:00 13.2 3 Este 8 Norte 0 -- -- 100
2021-01-28 03:00:00 13 4 Nordeste 12 Sur 0 -- -- 100
2021-01-28 02:00:00 12.6 3 Este 6 Norte 0 -- -- 99
2021-01-28 01:00:00 13.6 0 Calma 4 Sur 0 -- -- 99
2021-01-28 00:00:00 14.2 2 Sudoeste 4 Sudoeste 0 -- -- 99
2021-01-27 23:00:00 14.2 2 Este 10 Nordeste 0 -- -- 98
2021-01-27 22:00:00 15 6 Nordeste 9 Norte 0 -- -- 96
2021-01-27 21:00:00 15.7 4 Nordeste 13 Norte 0 -- -- 95
2021-01-27 20:00:00 16 4 Norte 16 Noroeste 0 -- -- 94
2021-01-27 19:00:00 17.2 8 Noroeste 20 Oeste 0 -- -- 92
2021-01-27 18:00:00 20.2 9 Norte 18 Norte 0 -- -- 81
2021-01-27 17:00:00 20.6 9 Norte 22 Norte 0 -- -- 79
2021-01-27 16:00:00 20.5 8 Norte 18 Nordeste 0 -- -- 80
2021-01-27 15:00:00 19.6 5 Norte 16 Norte 0 -- -- 85
2021-01-27 14:00:00 18.9 6 Norte 14 Noroeste 0 -- -- 87
2021-01-27 13:00:00 17.3 4 Norte 12 Norte 0 -- -- 94
2021-01-27 12:00:00 16.3 4 Norte 13 Norte 0 -- -- 97
2021-01-27 11:00:00 15.7 6 Norte 12 Norte 0 -- -- 100
2021-01-27 10:00:00 15.6 2 Oeste 4 Oeste 0 -- -- 100
2021-01-27 09:00:00 15.4 0 Calma 13 Noroeste 0 -- -- 100
2021-01-27 08:00:00 15.6 8 Noroeste 13 Oeste 0 -- -- 100
2021-01-27 07:00:00 15.7 5 Sur 7 Sur 0 -- -- 100
2021-01-27 06:00:00 15.7 3 Sur 4 Sur 0 -- -- 100
2021-01-27 05:00:00 15.6 0 Calma 2 Nordeste 0 -- -- 100
2021-01-27 04:00:00 15.6 2 Este 4 Este 0 -- -- 100
2021-01-27 03:00:00 15.6 0 Calma 7 Norte 0 -- -- 100
2021-01-27 02:00:00 15.6 0 Calma 15 Noroeste 0 -- -- 100
2021-01-27 01:00:00 15.9 3 Norte 6 Norte 0.2 -- -- 100
2021-01-27 00:00:00 16 4 Oeste 12 Sudoeste 0 -- -- 100
2021-01-26 23:00:00 16 9 Sudoeste 12 Sudoeste 0 -- -- 100
2021-01-26 22:00:00 16 9 Sudoeste 13 Oeste 0 -- -- 100
2021-01-26 21:00:00 16 9 Oeste 13 Sudoeste 0 -- -- 100
2021-01-26 20:00:00 16 8 Oeste 14 Oeste 0 -- -- 100
2021-01-26 19:00:00 16 10 Oeste 22 Oeste 0 -- -- 100
2021-01-26 18:00:00 15.8 17 Oeste 26 Oeste 0.2 -- -- 100
2021-01-26 17:00:00 16.1 19 Oeste 24 Oeste 0 -- -- 100
2021-01-26 16:00:00 16.4 16 Sudoeste 21 Oeste 0 -- -- 97
2021-01-26 15:00:00 16.9 7 Oeste 15 Sudoeste 0 -- -- 93
2021-01-26 14:00:00 17.2 9 Sudoeste 12 Sudoeste 0 -- -- 92
2021-01-26 13:00:00 16.5 10 Sudoeste 18 Sudoeste 0 -- -- 94
2021-01-26 12:00:00 16.6 17 Oeste 21 Oeste 0 -- -- 93
2021-01-26 11:00:00 16.2 12 Oeste 23 Oeste 0 -- -- 94
2021-01-26 10:00:00 15.9 14 Oeste 22 Oeste 0 -- -- 95
2021-01-26 09:00:00 15.6 10 Oeste 12 Oeste 0 -- -- 98
2021-01-26 08:00:00 15.6 8 Oeste 10 Oeste 0 -- -- 97
2021-01-26 07:00:00 15.3 3 Oeste 9 Oeste 0 -- -- 96
2021-01-26 06:00:00 15.3 3 Oeste 10 Noroeste 0 -- -- 97
2021-01-26 05:00:00 15.3 8 Noroeste 14 Oeste 0 -- -- 96
2021-01-26 04:00:00 15.4 12 Noroeste 19 Noroeste 0 -- -- 95
2021-01-26 03:00:00 15.3 10 Oeste 19 Oeste 0 -- -- 97
2021-01-26 02:00:00 15.3 12 Oeste 21 Oeste 0 -- -- 97
2021-01-26 01:00:00 15.8 16 Oeste 26 Oeste 0 -- -- 96
2021-01-26 00:00:00 16 19 Oeste 25 Oeste 0 -- -- 96
2021-01-25 23:00:00 15.9 18 Oeste 24 Oeste 0 -- -- 96
2021-01-25 22:00:00 15.7 14 Oeste 22 Oeste 0 -- -- 97
2021-01-25 21:00:00 15.9 18 Oeste 23 Oeste 0 -- -- 97
2021-01-25 20:00:00 15.7 14 Oeste 28 Oeste 0 -- -- 97
2021-01-25 19:00:00 15.8 20 Oeste 31 Oeste 0 -- -- 96
2021-01-25 18:00:00 15.9 20 Oeste 31 Oeste 0 -- -- 94
2021-01-25 17:00:00 15.9 17 Oeste 49 Sudoeste 1 -- -- 96
2021-01-25 16:00:00 16.5 33 Oeste 40 Sudoeste 0 -- -- 96
2021-01-25 15:00:00 16.7 26 Oeste 35 Sudoeste 0 -- -- 94
2021-01-25 14:00:00 16.7 28 Sudoeste 33 Sudoeste 0 -- -- 93
2021-01-25 13:00:00 16.7 26 Oeste 33 Oeste 0 -- -- 93
2021-01-25 12:00:00 16.7 28 Oeste 33 Oeste 0 -- -- 92
2021-01-25 11:00:00 16.2 23 Sudoeste 30 Sudoeste 0 -- -- 95
2021-01-25 10:00:00 15.2 7 Oeste 37 Oeste 0.6 -- -- 98
2021-01-25 09:00:00 15.7 17 Oeste 27 Oeste 0 -- -- 92
2021-01-25 08:00:00 15.5 14 Oeste 30 Sudoeste 0 -- -- 93
2021-01-25 07:00:00 15.8 17 Sudoeste 28 Oeste 0 -- -- 99
2021-01-25 06:00:00 15.8 15 Oeste 22 Oeste 0 -- -- 99
2021-01-25 05:00:00 15.5 14 Oeste 23 Oeste 0 -- -- 98
2021-01-25 04:00:00 15.1 9 Oeste 21 Oeste 0 -- -- 98
2021-01-25 03:00:00 12.4 3 Oeste 10 Oeste 0 -- -- 100
2021-01-25 02:00:00 11.7 0 Calma 6 Nordeste 0 -- -- 100
2021-01-25 01:00:00 11.8 4 Norte 5 Norte 0 -- -- 99
2021-01-25 00:00:00 12.3 4 Nordeste 5 Norte 0 -- -- 98